Bob Sikes Airport
KCEW : now visible

Airfield :











YOU CAN JOIN US ON...

 
LOGIN :

Register | Disclaimer

   EN    FR    IT 

 









Legend :    VFR   Marginal VFR   IFR   Intensive IFR   Very Intensive IFR
Visi :
Ceiling :
>= 8 km
>= 3000ft
5 to 8 km
1000 to 3000 ft
1500m to 5 km
500 to 1000 ft
800 to 1500m
200 to 500 ft
< 800m
< 200 ft
Symbols :   Thunderstorms  Fog  Heavy snow  Heavy precipitations  Wind > 20 kt






- Airport Elevation : 213 ft


KCEW - Bob Sikes

CURRENT METAR :
  • 081953Z AUTO 11008KT 10SM BKN041 OVC055 20/14 A3009 RMK AO2 SLP189 T02000139

EXPIRED METARs :
  • 081853Z AUTO 12006KT 10SM BKN041 OVC055 21/14 A3012 RMK AO2 SLP198 T02060139
  • 081753Z AUTO 12007G14KT 10SM OVC041 21/14 A3015 RMK AO2 SLP207 6//// T02110139 10211 20128 58019

TAF N/A



MET'MAP, your aeronautical weather chart ! - Copyright ORBIFLY December 2007 - Disclaimer

ORBIFLY MET'MAP TEAM :

Programming & Development : Alexandra Zaïnal
Concept & original design : Baudouin d'Aumeries
Assistance for programming : Marc-Olivier Méhu
Technical & hardware support : Manuel Goepfert

Contact : metmap@orbifly.com




SOURCES & CREDITS :

   NOAA       Earth
Advisory